< < Back
Terminal Aerodrome Forecast


Current Version              Previous Versions:   1  2  3  4  5  6  7  8  9  

Terminal Aerodrome Forecast

096
FTUS42 KILM 090127 AAA
TAFILM
TAF AMD
KILM 090127Z 0901/0924 23011G18KT P6SM VCSH SCT050 BKN100
      TEMPO 0901/0903 6SM -SHRA BKN025 OVC080
     FM090300 26010G15KT P6SM BKN060
     FM090600 26015G20KT P6SM SCT250
     FM091300 26018G25KT P6SM SCT050 BKN100
     FM091700 26016G27KT P6SM BKN050=

Latest METAR

836
SAUS70 KWBC 091200
MTRILM
METAR KILM 091153Z AUTO 26010KT 10SM FEW040 04/01 A2968 RMK AO2 SLP051
70001 T00390011 10078 20033 53019


USA.gov is the U.S. government's official web portal to all federal, state and local government web resources and services.